sensor_id;sensor_type;location;lat;lon;timestamp;pressure;altitude;pressure_sealevel;temperature;humidity
32320;BME280;19080;51.750;5.888;2023-05-07T00:00:20;101390.91;;;14.65;100.00
32320;BME280;19080;51.750;5.888;2023-05-07T00:02:47;101404.28;;;14.67;100.00
32320;BME280;19080;51.750;5.888;2023-05-07T00:05:14;101380.06;;;14.47;100.00
32320;BME280;19080;51.750;5.888;2023-05-07T00:07:41;101413.09;;;14.53;100.00
32320;BME280;19080;51.750;5.888;2023-05-07T00:10:10;101424.63;;;14.51;100.00
32320;BME280;19080;51.750;5.888;2023-05-07T00:12:37;101415.59;;;14.40;100.00
32320;BME280;19080;51.750;5.888;2023-05-07T00:15:05;101329.69;;;13.83;100.00
32320;BME280;19080;51.750;5.888;2023-05-07T00:17:32;101367.19;;;14.00;100.00
32320;BME280;19080;51.750;5.888;2023-05-07T00:19:59;101397.56;;;14.13;100.00
32320;BME280;19080;51.750;5.888;2023-05-07T00:22:26;101414.50;;;14.16;100.00
32320;BME280;19080;51.750;5.888;2023-05-07T00:24:52;101381.31;;;13.90;100.00
32320;BME280;19080;51.750;5.888;2023-05-07T00:27:19;101415.28;;;14.06;100.00
32320;BME280;19080;51.750;5.888;2023-05-07T00:29:46;101393.81;;;13.94;100.00
32320;BME280;19080;51.750;5.888;2023-05-07T00:32:12;101358.03;;;13.72;100.00
32320;BME280;19080;51.750;5.888;2023-05-07T00:34:39;101406.28;;;13.95;100.00
32320;BME280;19080;51.750;5.888;2023-05-07T00:37:06;101389.28;;;13.84;100.00
32320;BME280;19080;51.750;5.888;2023-05-07T00:39:36;101311.47;;;13.41;100.00
32320;BME280;19080;51.750;5.888;2023-05-07T00:42:02;101374.97;;;13.77;100.00
32320;BME280;19080;51.750;5.888;2023-05-07T00:44:29;101332.03;;;13.51;100.00
32320;BME280;19080;51.750;5.888;2023-05-07T00:46:57;101380.34;;;13.80;100.00
32320;BME280;19080;51.750;5.888;2023-05-07T00:49:37;101395.50;;;13.83;100.00
32320;BME280;19080;51.750;5.888;2023-05-07T00:52:06;101387.44;;;13.77;100.00
32320;BME280;19080;51.750;5.888;2023-05-07T00:54:34;101376.66;;;13.67;100.00
32320;BME280;19080;51.750;5.888;2023-05-07T00:57:02;101377.56;;;13.68;100.00
32320;BME280;19080;51.750;5.888;2023-05-07T00:59:31;101391.88;;;13.78;100.00
32320;BME280;19080;51.750;5.888;2023-05-07T01:01:58;101323.00;;;13.39;100.00
32320;BME280;19080;51.750;5.888;2023-05-07T01:04:26;101318.50;;;13.36;100.00
32320;BME280;19080;51.750;5.888;2023-05-07T01:06:58;101386.53;;;13.75;100.00
32320;BME280;19080;51.750;5.888;2023-05-07T01:09:27;101390.06;;;13.74;100.00
32320;BME280;19080;51.750;5.888;2023-05-07T01:11:56;101339.06;;;13.45;100.00
32320;BME280;19080;51.750;5.888;2023-05-07T01:14:24;101306.88;;;13.29;100.00
32320;BME280;19080;51.750;5.888;2023-05-07T01:16:52;101383.03;;;13.82;100.00
32320;BME280;19080;51.750;5.888;2023-05-07T01:19:21;101359.84;;;13.75;100.00
32320;BME280;19080;51.750;5.888;2023-05-07T01:21:48;101377.78;;;13.94;100.00
32320;BME280;19080;51.750;5.888;2023-05-07T01:24:17;101377.84;;;14.00;100.00
32320;BME280;19080;51.750;5.888;2023-05-07T01:26:44;101374.28;;;13.98;100.00
32320;BME280;19080;51.750;5.888;2023-05-07T01:29:13;101373.47;;;14.07;100.00
32320;BME280;19080;51.750;5.888;2023-05-07T01:31:41;101380.69;;;14.17;100.00
32320;BME280;19080;51.750;5.888;2023-05-07T01:34:11;101291.31;;;13.69;100.00
32320;BME280;19080;51.750;5.888;2023-05-07T01:36:40;101372.72;;;14.21;100.00
32320;BME280;19080;51.750;5.888;2023-05-07T01:39:09;101363.81;;;14.22;100.00
32320;BME280;19080;51.750;5.888;2023-05-07T01:41:37;101305.72;;;13.92;100.00
32320;BME280;19080;51.750;5.888;2023-05-07T01:44:03;101355.00;;;14.32;100.00
32320;BME280;19080;51.750;5.888;2023-05-07T01:46:32;101372.06;;;14.47;100.00
32320;BME280;19080;51.750;5.888;2023-05-07T01:48:59;101362.19;;;14.40;100.00
32320;BME280;19080;51.750;5.888;2023-05-07T01:51:26;101365.81;;;14.45;100.00
32320;BME280;19080;51.750;5.888;2023-05-07T01:53:54;101378.41;;;14.61;100.00
32320;BME280;19080;51.750;5.888;2023-05-07T01:56:22;101369.47;;;14.59;100.00
32320;BME280;19080;51.750;5.888;2023-05-07T01:58:49;101310.50;;;14.34;100.00
32320;BME280;19080;51.750;5.888;2023-05-07T02:01:17;101347.22;;;14.58;100.00
32320;BME280;19080;51.750;5.888;2023-05-07T02:03:44;101375.84;;;14.75;100.00
32320;BME280;19080;51.750;5.888;2023-05-07T02:06:19;101295.34;;;14.29;100.00
32320;BME280;19080;51.750;5.888;2023-05-07T02:08:47;101292.69;;;14.33;100.00
32320;BME280;19080;51.750;5.888;2023-05-07T02:11:14;101354.41;;;14.69;100.00
32320;BME280;19080;51.750;5.888;2023-05-07T02:13:41;101365.16;;;14.78;100.00
32320;BME280;19080;51.750;5.888;2023-05-07T02:16:08;101283.78;;;14.33;100.00
32320;BME280;19080;51.750;5.888;2023-05-07T02:18:34;101350.91;;;14.76;100.00
32320;BME280;19080;51.750;5.888;2023-05-07T02:21:02;101351.78;;;14.76;100.00
32320;BME280;19080;51.750;5.888;2023-05-07T02:23:30;101347.31;;;14.75;100.00
32320;BME280;19080;51.750;5.888;2023-05-07T02:25:57;101355.34;;;14.77;100.00
32320;BME280;19080;51.750;5.888;2023-05-07T02:28:24;101304.44;;;14.51;100.00
32320;BME280;19080;51.750;5.888;2023-05-07T02:30:55;101275.78;;;14.34;100.00
32320;BME280;19080;51.750;5.888;2023-05-07T02:33:24;101308.00;;;14.54;100.00
32320;BME280;19080;51.750;5.888;2023-05-07T02:35:51;101345.56;;;14.77;100.00
32320;BME280;19080;51.750;5.888;2023-05-07T02:38:18;101352.69;;;14.77;100.00
32320;BME280;19080;51.750;5.888;2023-05-07T02:40:44;101354.47;;;14.78;100.00
32320;BME280;19080;51.750;5.888;2023-05-07T02:43:11;101276.69;;;14.35;100.00
32320;BME280;19080;51.750;5.888;2023-05-07T02:45:41;101347.31;;;14.75;100.00
32320;BME280;19080;51.750;5.888;2023-05-07T02:48:10;101330.38;;;14.69;100.00
32320;BME280;19080;51.750;5.888;2023-05-07T02:50:37;101359.84;;;14.81;100.00
32320;BME280;19080;51.750;5.888;2023-05-07T02:53:03;101334.78;;;14.63;100.00
32320;BME280;19080;51.750;5.888;2023-05-07T02:55:30;101357.16;;;14.79;100.00
32320;BME280;19080;51.750;5.888;2023-05-07T02:57:57;101330.34;;;14.64;100.00
32320;BME280;19080;51.750;5.888;2023-05-07T03:00:25;101300.84;;;14.49;100.00
32320;BME280;19080;51.750;5.888;2023-05-07T03:03:01;101353.59;;;14.79;100.00
32320;BME280;19080;51.750;5.888;2023-05-07T03:05:28;101358.03;;;14.77;100.00
32320;BME280;19080;51.750;5.888;2023-05-07T03:07:55;101368.75;;;14.81;100.00
32320;BME280;19080;51.750;5.888;2023-05-07T03:10:21;101352.66;;;14.72;100.00
32320;BME280;19080;51.750;5.888;2023-05-07T03:12:48;101362.47;;;14.73;100.00
32320;BME280;19080;51.750;5.888;2023-05-07T03:15:16;101265.00;;;14.21;100.00
32320;BME280;19080;51.750;5.888;2023-05-07T03:17:43;101304.38;;;14.43;100.00
32320;BME280;19080;51.750;5.888;2023-05-07T03:20:10;101354.38;;;14.65;100.00
32320;BME280;19080;51.750;5.888;2023-05-07T03:22:38;101254.25;;;14.10;100.00
32320;BME280;19080;51.750;5.888;2023-05-07T03:25:06;101363.34;;;14.74;100.00
32320;BME280;19080;51.750;5.888;2023-05-07T03:27:33;101365.13;;;14.72;100.00
32320;BME280;19080;51.750;5.888;2023-05-07T03:30:00;101353.50;;;14.65;100.00
32320;BME280;19080;51.750;5.888;2023-05-07T03:32:27;101366.03;;;14.75;100.00
32320;BME280;19080;51.750;5.888;2023-05-07T03:34:54;101358.88;;;14.71;100.00
32320;BME280;19080;51.750;5.888;2023-05-07T03:37:21;101373.19;;;14.79;100.00
32320;BME280;19080;51.750;5.888;2023-05-07T03:39:48;101376.75;;;14.78;100.00
32320;BME280;19080;51.750;5.888;2023-05-07T03:42:15;101382.09;;;14.78;100.00
32320;BME280;19080;51.750;5.888;2023-05-07T03:44:42;101353.50;;;14.65;100.00
32320;BME280;19080;51.750;5.888;2023-05-07T03:47:08;101374.97;;;14.80;100.00
32320;BME280;19080;51.750;5.888;2023-05-07T03:49:37;101337.47;;;14.63;100.00
32320;BME280;19080;51.750;5.888;2023-05-07T03:52:05;101369.63;;;14.79;100.00
32320;BME280;19080;51.750;5.888;2023-05-07T03:54:32;101357.13;;;14.73;100.00
32320;BME280;19080;51.750;5.888;2023-05-07T03:56:59;101354.44;;;14.75;100.00
32320;BME280;19080;51.750;5.888;2023-05-07T03:59:26;101349.97;;;14.72;100.00
32320;BME280;19080;51.750;5.888;2023-05-07T04:01:54;101374.13;;;14.84;100.00
32320;BME280;19080;51.750;5.888;2023-05-07T04:04:23;101338.41;;;14.73;100.00
32320;BME280;19080;51.750;5.888;2023-05-07T04:06:50;101304.44;;;14.52;100.00
32320;BME280;19080;51.750;5.888;2023-05-07T04:09:16;101354.47;;;14.76;100.00
32320;BME280;19080;51.750;5.888;2023-05-07T04:11:45;101377.66;;;14.83;100.00
32320;BME280;19080;51.750;5.888;2023-05-07T04:14:11;101307.06;;;14.46;100.00
32320;BME280;19080;51.750;5.888;2023-05-07T04:16:38;101375.00;;;14.83;100.00
32320;BME280;19080;51.750;5.888;2023-05-07T04:19:06;101380.38;;;14.86;100.00
32320;BME280;19080;51.750;5.888;2023-05-07T04:21:34;101364.28;;;14.77;100.00
32320;BME280;19080;51.750;5.888;2023-05-07T04:24:02;101257.84;;;14.15;100.00
32320;BME280;19080;51.750;5.888;2023-05-07T04:26:29;101388.38;;;14.88;100.00
32320;BME280;19080;51.750;5.888;2023-05-07T04:28:56;101380.31;;;14.80;100.00
32320;BME280;19080;51.750;5.888;2023-05-07T04:31:30;101366.94;;;14.77;100.00
32320;BME280;19080;51.750;5.888;2023-05-07T04:33:57;101386.59;;;14.88;100.00
32320;BME280;19080;51.750;5.888;2023-05-07T04:36:24;101376.78;;;14.84;100.00
32320;BME280;19080;51.750;5.888;2023-05-07T04:38:58;101377.66;;;14.83;100.00
32320;BME280;19080;51.750;5.888;2023-05-07T04:41:25;101298.09;;;14.40;100.00
32320;BME280;19080;51.750;5.888;2023-05-07T04:43:53;101316.00;;;14.50;100.00
32320;BME280;19080;51.750;5.888;2023-05-07T04:46:22;101374.13;;;14.84;100.00
32320;BME280;19080;51.750;5.888;2023-05-07T04:48:49;101391.09;;;14.92;100.00
32320;BME280;19080;51.750;5.888;2023-05-07T04:51:15;101366.97;;;14.83;100.00
32320;BME280;19080;51.750;5.888;2023-05-07T04:53:42;101384.88;;;14.98;100.00
32320;BME280;19080;51.750;5.888;2023-05-07T04:56:09;101314.25;;;14.55;100.00
32320;BME280;19080;51.750;5.888;2023-05-07T04:58:40;101400.94;;;15.03;100.00
32320;BME280;19080;51.750;5.888;2023-05-07T05:01:07;101378.66;;;14.97;100.00
32320;BME280;19080;51.750;5.888;2023-05-07T05:03:34;101386.72;;;15.05;100.00
32320;BME280;19080;51.750;5.888;2023-05-07T05:06:01;101366.13;;;14.92;100.00
32320;BME280;19080;51.750;5.888;2023-05-07T05:08:31;101317.91;;;14.69;100.00
32320;BME280;19080;51.750;5.888;2023-05-07T05:11:01;101398.38;;;15.18;100.00
32320;BME280;19080;51.750;5.888;2023-05-07T05:13:29;101389.47;;;15.22;100.00
32320;BME280;19080;51.750;5.888;2023-05-07T05:15:57;101330.50;;;14.91;100.00
32320;BME280;19080;51.750;5.888;2023-05-07T05:18:25;101287.59;;;14.67;100.00
32320;BME280;19080;51.750;5.888;2023-05-07T05:20:52;101407.41;;;15.43;100.00
32320;BME280;19080;51.750;5.888;2023-05-07T05:23:19;101392.22;;;15.37;100.00
32320;BME280;19080;51.750;5.888;2023-05-07T05:25:46;101403.00;;;15.52;100.00
32320;BME280;19080;51.750;5.888;2023-05-07T05:28:13;101388.72;;;15.52;100.00
32320;BME280;19080;51.750;5.888;2023-05-07T05:30:40;101398.56;;;15.62;100.00
32320;BME280;19080;51.750;5.888;2023-05-07T05:33:07;101414.66;;;15.77;100.00
32320;BME280;19080;51.750;5.888;2023-05-07T05:35:34;101351.25;;;15.49;100.00
32320;BME280;19080;51.750;5.888;2023-05-07T05:38:04;101418.28;;;15.96;100.00
32320;BME280;19080;51.750;5.888;2023-05-07T05:40:32;101423.66;;;16.05;100.00
32320;BME280;19080;51.750;5.888;2023-05-07T05:43:00;101338.81;;;15.69;100.00
32320;BME280;19080;51.750;5.888;2023-05-07T05:45:27;101414.78;;;16.32;100.00
32320;BME280;19080;51.750;5.888;2023-05-07T05:47:56;101424.59;;;16.53;100.00
32320;BME280;19080;51.750;5.888;2023-05-07T05:50:23;101428.22;;;16.72;100.00
32320;BME280;19080;51.750;5.888;2023-05-07T05:52:51;101439.81;;;16.97;100.00
32320;BME280;19080;51.750;5.888;2023-05-07T05:55:19;101358.50;;;16.75;100.00
32320;BME280;19080;51.750;5.888;2023-05-07T05:57:46;101431.72;;;17.24;100.00
32320;BME280;19080;51.750;5.888;2023-05-07T06:00:13;101434.38;;;17.27;100.00
32320;BME280;19080;51.750;5.888;2023-05-07T06:02:46;101424.56;;;17.23;100.00
32320;BME280;19080;51.750;5.888;2023-05-07T06:05:19;101379.03;;;16.91;100.00
32320;BME280;19080;51.750;5.888;2023-05-07T06:07:49;101443.34;;;17.23;100.00
32320;BME280;19080;51.750;5.888;2023-05-07T06:10:16;101328.13;;;16.54;100.00
32320;BME280;19080;51.750;5.888;2023-05-07T06:12:43;101418.34;;;16.97;100.00
32320;BME280;19080;51.750;5.888;2023-05-07T06:15:10;101366.56;;;16.73;100.00
32320;BME280;19080;51.750;5.888;2023-05-07T06:17:38;101436.19;;;17.17;100.00
32320;BME280;19080;51.750;5.888;2023-05-07T06:20:06;101429.03;;;17.15;100.00
32320;BME280;19080;51.750;5.888;2023-05-07T06:22:33;101369.22;;;16.82;100.00
32320;BME280;19080;51.750;5.888;2023-05-07T06:25:00;101429.91;;;17.26;100.00
32320;BME280;19080;51.750;5.888;2023-05-07T06:27:27;101419.19;;;17.26;100.00
32320;BME280;19080;51.750;5.888;2023-05-07T06:29:55;101442.41;;;17.33;100.00
32320;BME280;19080;51.750;5.888;2023-05-07T06:32:21;101421.88;;;17.23;100.00
32320;BME280;19080;51.750;5.888;2023-05-07T06:34:49;101444.13;;;17.43;100.00
32320;BME280;19080;51.750;5.888;2023-05-07T06:37:16;101441.44;;;17.49;100.00
32320;BME280;19080;51.750;5.888;2023-05-07T06:39:51;101414.63;;;17.43;100.00
32320;BME280;19080;51.750;5.888;2023-05-07T06:42:18;101444.97;;;17.61;100.00
32320;BME280;19080;51.750;5.888;2023-05-07T06:44:47;101423.50;;;17.54;100.00
32320;BME280;19080;51.750;5.888;2023-05-07T06:47:15;101452.06;;;17.80;100.00
32320;BME280;19080;51.750;5.888;2023-05-07T06:49:45;101428.84;;;17.73;100.00
32320;BME280;19080;51.750;5.888;2023-05-07T06:52:15;101450.25;;;17.88;100.00
32320;BME280;19080;51.750;5.888;2023-05-07T06:54:42;101457.34;;;18.01;100.00
32320;BME280;19080;51.750;5.888;2023-05-07T06:57:09;101460.91;;;18.06;100.00
32320;BME280;19080;51.750;5.888;2023-05-07T06:59:35;101453.69;;;18.13;100.00
32320;BME280;19080;51.750;5.888;2023-05-07T07:02:02;101461.63;;;18.34;100.00
32320;BME280;19080;51.750;5.888;2023-05-07T07:04:29;101397.34;;;18.01;100.00
32320;BME280;19080;51.750;5.888;2023-05-07T07:07:03;101441.97;;;18.25;100.00
32320;BME280;19080;51.750;5.888;2023-05-07T07:09:31;101463.38;;;18.40;100.00
32320;BME280;19080;51.750;5.888;2023-05-07T07:11:59;101471.38;;;18.46;100.00
32320;BME280;19080;51.750;5.888;2023-05-07T07:14:26;101464.22;;;18.45;100.00
32320;BME280;19080;51.750;5.888;2023-05-07T07:16:53;101478.56;;;18.44;100.00
32320;BME280;19080;51.750;5.888;2023-05-07T07:19:22;101476.69;;;18.55;100.00
32320;BME280;19080;51.750;5.888;2023-05-07T07:21:51;101470.34;;;18.68;100.00
32320;BME280;19080;51.750;5.888;2023-05-07T07:24:18;101471.09;;;18.85;100.00
32320;BME280;19080;51.750;5.888;2023-05-07T07:26:51;101436.34;;;18.60;100.00
32320;BME280;19080;51.750;5.888;2023-05-07T07:29:19;101463.16;;;18.73;100.00
32320;BME280;19080;51.750;5.888;2023-05-07T07:31:48;101407.78;;;18.45;100.00
32320;BME280;19080;51.750;5.888;2023-05-07T07:34:16;101451.44;;;18.77;100.00
32320;BME280;19080;51.750;5.888;2023-05-07T07:36:42;101461.13;;;18.97;100.00
32320;BME280;19080;51.750;5.888;2023-05-07T07:39:15;101445.06;;;18.91;100.00
32320;BME280;19080;51.750;5.888;2023-05-07T07:41:43;101457.47;;;19.05;100.00
32320;BME280;19080;51.750;5.888;2023-05-07T07:44:11;101470.78;;;19.16;100.00
32320;BME280;19080;51.750;5.888;2023-05-07T07:46:43;101474.34;;;19.18;100.00
32320;BME280;19080;51.750;5.888;2023-05-07T07:49:10;101452.13;;;19.01;100.00
32320;BME280;19080;51.750;5.888;2023-05-07T07:51:36;101458.44;;;18.97;100.00
32320;BME280;19080;51.750;5.888;2023-05-07T07:54:03;101439.59;;;18.98;100.00
32320;BME280;19080;51.750;5.888;2023-05-07T07:56:32;101452.84;;;19.15;100.00
32320;BME280;19080;51.750;5.888;2023-05-07T07:59:01;101417.03;;;19.10;100.00
32320;BME280;19080;51.750;5.888;2023-05-07T08:01:30;101464.25;;;19.38;100.00
32320;BME280;19080;51.750;5.888;2023-05-07T08:03:57;101489.09;;;19.66;100.00
32320;BME280;19080;51.750;5.888;2023-05-07T08:06:32;101473.00;;;19.63;100.00
32320;BME280;19080;51.750;5.888;2023-05-07T08:08:59;101460.44;;;19.61;100.00
32320;BME280;19080;51.750;5.888;2023-05-07T08:11:25;101470.03;;;19.83;100.00
32320;BME280;19080;51.750;5.888;2023-05-07T08:13:54;101468.94;;;19.98;100.00
32320;BME280;19080;51.750;5.888;2023-05-07T08:16:21;101476.69;;;20.24;100.00
32320;BME280;19080;51.750;5.888;2023-05-07T08:18:51;101417.47;;;20.18;100.00
32320;BME280;19080;51.750;5.888;2023-05-07T08:21:17;101477.72;;;20.73;100.00
32320;BME280;19080;51.750;5.888;2023-05-07T08:23:44;101482.53;;;21.07;100.00
32320;BME280;19080;51.750;5.888;2023-05-07T08:26:11;101488.44;;;21.29;100.00
32320;BME280;19080;51.750;5.888;2023-05-07T08:28:37;101432.16;;;21.06;100.00
32320;BME280;19080;51.750;5.888;2023-05-07T08:31:04;101491.50;;;21.57;100.00
32320;BME280;19080;51.750;5.888;2023-05-07T08:33:34;101477.19;;;21.96;100.00
32320;BME280;19080;51.750;5.888;2023-05-07T08:36:01;101491.75;;;22.31;100.00
32320;BME280;19080;51.750;5.888;2023-05-07T08:38:28;101491.00;;;22.61;100.00
32320;BME280;19080;51.750;5.888;2023-05-07T08:40:55;101447.00;;;22.90;100.00
32320;BME280;19080;51.750;5.888;2023-05-07T08:43:23;101445.28;;;23.20;100.00
32320;BME280;19080;51.750;5.888;2023-05-07T08:45:58;101483.31;;;23.82;100.00
32320;BME280;19080;51.750;5.888;2023-05-07T08:48:32;101432.91;;;24.05;100.00
32320;BME280;19080;51.750;5.888;2023-05-07T08:51:05;101417.66;;;24.28;100.00
32320;BME280;19080;51.750;5.888;2023-05-07T08:53:33;101480.50;;;24.98;100.00
32320;BME280;19080;51.750;5.888;2023-05-07T08:56:00;101483.91;;;25.05;100.00
32320;BME280;19080;51.750;5.888;2023-05-07T08:58:28;101470.50;;;25.25;100.00
32320;BME280;19080;51.750;5.888;2023-05-07T09:00:55;101484.13;;;25.75;100.00
32320;BME280;19080;51.750;5.888;2023-05-07T09:03:23;101476.13;;;25.71;93.77
32320;BME280;19080;51.750;5.888;2023-05-07T09:05:52;101486.31;;;25.64;100.00
32320;BME280;19080;51.750;5.888;2023-05-07T09:08:24;101428.81;;;25.26;97.83
32320;BME280;19080;51.750;5.888;2023-05-07T09:10:53;101490.97;;;25.85;95.68
32320;BME280;19080;51.750;5.888;2023-05-07T09:13:21;101490.13;;;26.07;95.71
32320;BME280;19080;51.750;5.888;2023-05-07T09:15:49;101428.00;;;26.18;93.52
32320;BME280;19080;51.750;5.888;2023-05-07T09:18:16;101485.28;;;26.82;82.62
32320;BME280;19080;51.750;5.888;2023-05-07T09:20:45;101481.22;;;26.92;78.28
32320;BME280;19080;51.750;5.888;2023-05-07T09:23:13;101470.94;;;27.20;81.35
32320;BME280;19080;51.750;5.888;2023-05-07T09:25:42;101329.41;;;26.75;71.96
32320;BME280;19080;51.750;5.888;2023-05-07T09:28:15;101494.47;;;27.64;71.33
32320;BME280;19080;51.750;5.888;2023-05-07T09:30:41;101487.50;;;27.36;68.92
32320;BME280;19080;51.750;5.888;2023-05-07T09:33:11;101483.34;;;27.48;77.65
32320;BME280;19080;51.750;5.888;2023-05-07T09:35:41;101469.56;;;27.51;74.36
32320;BME280;19080;51.750;5.888;2023-05-07T09:38:13;101493.97;;;27.54;68.54
32320;BME280;19080;51.750;5.888;2023-05-07T09:40:40;101481.97;;;27.58;77.81
32320;BME280;19080;51.750;5.888;2023-05-07T09:43:13;101478.13;;;27.82;68.65
32320;BME280;19080;51.750;5.888;2023-05-07T09:45:56;101482.13;;;28.13;69.29
32320;BME280;19080;51.750;5.888;2023-05-07T09:48:26;101481.31;;;28.11;65.77
32320;BME280;19080;51.750;5.888;2023-05-07T09:50:56;101473.66;;;28.19;62.64
32320;BME280;19080;51.750;5.888;2023-05-07T09:53:30;101476.84;;;28.29;61.13
32320;BME280;19080;51.750;5.888;2023-05-07T09:56:00;101383.34;;;28.05;60.32
32320;BME280;19080;51.750;5.888;2023-05-07T09:58:31;101480.13;;;28.73;58.66
32320;BME280;19080;51.750;5.888;2023-05-07T10:00:59;101409.09;;;28.37;62.83
32320;BME280;19080;51.750;5.888;2023-05-07T10:03:28;101420.94;;;28.55;58.39
32320;BME280;19080;51.750;5.888;2023-05-07T10:06:03;101483.56;;;28.40;55.69
32320;BME280;19080;51.750;5.888;2023-05-07T10:08:31;101475.72;;;28.51;59.67
32320;BME280;19080;51.750;5.888;2023-05-07T10:11:01;101455.50;;;28.56;56.45
32320;BME280;19080;51.750;5.888;2023-05-07T10:13:29;101473.75;;;28.36;55.89
32320;BME280;19080;51.750;5.888;2023-05-07T10:15:58;101471.72;;;28.02;56.94
32320;BME280;19080;51.750;5.888;2023-05-07T10:18:30;101480.06;;;27.99;61.33
32320;BME280;19080;51.750;5.888;2023-05-07T10:21:13;101465.06;;;27.50;61.04
32320;BME280;19080;51.750;5.888;2023-05-07T10:23:45;101466.31;;;27.43;64.86
32320;BME280;19080;51.750;5.888;2023-05-07T10:26:17;101474.75;;;27.37;63.58
32320;BME280;19080;51.750;5.888;2023-05-07T10:28:49;101473.38;;;27.06;61.81
32320;BME280;19080;51.750;5.888;2023-05-07T10:31:38;101475.78;;;27.14;66.47
32320;BME280;19080;51.750;5.888;2023-05-07T10:34:14;101466.16;;;27.26;67.46
32320;BME280;19080;51.750;5.888;2023-05-07T10:36:44;101474.69;;;27.38;63.47
32320;BME280;19080;51.750;5.888;2023-05-07T10:39:13;101485.78;;;27.54;62.79
32320;BME280;19080;51.750;5.888;2023-05-07T10:41:40;101463.16;;;27.32;64.00
32320;BME280;19080;51.750;5.888;2023-05-07T10:44:07;101469.44;;;27.13;65.18
32320;BME280;19080;51.750;5.888;2023-05-07T10:46:36;101469.06;;;27.01;62.91
32320;BME280;19080;51.750;5.888;2023-05-07T10:49:11;101486.63;;;27.36;66.09
32320;BME280;19080;51.750;5.888;2023-05-07T10:52:13;101480.19;;;27.77;60.82
32320;BME280;19080;51.750;5.888;2023-05-07T10:57:43;101463.50;;;27.24;61.55
32320;BME280;19080;51.750;5.888;2023-05-07T11:05:36;101463.75;;;26.76;62.92
32320;BME280;19080;51.750;5.888;2023-05-07T11:08:16;101477.31;;;26.55;63.22
32320;BME280;19080;51.750;5.888;2023-05-07T11:10:54;101461.34;;;26.23;63.77
32320;BME280;19080;51.750;5.888;2023-05-07T11:13:59;101481.66;;;26.14;65.51
32320;BME280;19080;51.750;5.888;2023-05-07T11:16:40;101475.22;;;26.17;69.01
32320;BME280;19080;51.750;5.888;2023-05-07T11:19:50;101468.47;;;26.04;64.29
32320;BME280;19080;51.750;5.888;2023-05-07T11:25:09;101456.72;;;26.48;66.76
32320;BME280;19080;51.750;5.888;2023-05-07T11:27:37;101453.75;;;26.54;62.34
32320;BME280;19080;51.750;5.888;2023-05-07T11:30:04;101407.66;;;26.05;63.56
32320;BME280;19080;51.750;5.888;2023-05-07T11:32:32;101463.50;;;26.38;62.63
32320;BME280;19080;51.750;5.888;2023-05-07T11:35:00;101478.25;;;26.54;61.50
32320;BME280;19080;51.750;5.888;2023-05-07T11:37:27;101452.94;;;26.29;59.17
32320;BME280;19080;51.750;5.888;2023-05-07T11:40:04;101475.91;;;26.45;57.85
32320;BME280;19080;51.750;5.888;2023-05-07T11:42:39;101457.13;;;26.16;58.16
32320;BME280;19080;51.750;5.888;2023-05-07T11:45:08;101406.47;;;25.90;59.88
32320;BME280;19080;51.750;5.888;2023-05-07T11:47:35;101478.53;;;26.25;62.13
32320;BME280;19080;51.750;5.888;2023-05-07T11:50:07;101466.69;;;26.49;60.10
32320;BME280;19080;51.750;5.888;2023-05-07T11:52:35;101455.28;;;26.62;57.05
32320;BME280;19080;51.750;5.888;2023-05-07T11:55:02;101480.09;;;26.76;57.08
32320;BME280;19080;51.750;5.888;2023-05-07T11:57:32;101467.50;;;26.73;58.26
32320;BME280;19080;51.750;5.888;2023-05-07T12:00:00;101461.72;;;27.03;55.49
32320;BME280;19080;51.750;5.888;2023-05-07T12:02:38;101441.31;;;26.91;55.43
32320;BME280;19080;51.750;5.888;2023-05-07T12:05:06;101413.84;;;26.75;55.00
32320;BME280;19080;51.750;5.888;2023-05-07T12:07:34;101474.88;;;27.13;55.41
32320;BME280;19080;51.750;5.888;2023-05-07T12:10:07;101460.03;;;27.20;53.36
32320;BME280;19080;51.750;5.888;2023-05-07T12:12:46;101472.84;;;27.18;52.83
32320;BME280;19080;51.750;5.888;2023-05-07T12:15:15;101439.16;;;26.99;52.75
32320;BME280;19080;51.750;5.888;2023-05-07T12:17:43;101403.28;;;26.88;52.95
32320;BME280;19080;51.750;5.888;2023-05-07T12:20:10;101479.13;;;27.20;52.82
32320;BME280;19080;51.750;5.888;2023-05-07T12:22:36;101468.69;;;27.10;53.15
32320;BME280;19080;51.750;5.888;2023-05-07T12:25:03;101416.78;;;26.91;52.14
32320;BME280;19080;51.750;5.888;2023-05-07T12:27:30;101476.84;;;27.10;53.05
32320;BME280;19080;51.750;5.888;2023-05-07T12:29:57;101461.31;;;26.90;52.00
32320;BME280;19080;51.750;5.888;2023-05-07T12:32:25;101403.47;;;26.41;52.50
32320;BME280;19080;51.750;5.888;2023-05-07T12:34:52;101477.69;;;26.90;53.34
32320;BME280;19080;51.750;5.888;2023-05-07T12:37:24;101483.22;;;26.67;53.55
32320;BME280;19080;51.750;5.888;2023-05-07T12:40:08;101474.34;;;26.62;55.92
32320;BME280;19080;51.750;5.888;2023-05-07T12:42:36;101489.97;;;26.56;55.46
32320;BME280;19080;51.750;5.888;2023-05-07T12:45:10;101485.41;;;26.35;55.50
32320;BME280;19080;51.750;5.888;2023-05-07T12:47:43;101479.59;;;26.21;56.13
32320;BME280;19080;51.750;5.888;2023-05-07T12:50:14;101486.47;;;26.08;55.44
32320;BME280;19080;51.750;5.888;2023-05-07T12:52:57;101488.25;;;25.85;55.35
32320;BME280;19080;51.750;5.888;2023-05-07T12:55:24;101481.78;;;25.65;56.13
32320;BME280;19080;51.750;5.888;2023-05-07T12:57:51;101492.41;;;25.46;57.66
32320;BME280;19080;51.750;5.888;2023-05-07T13:00:38;101492.97;;;25.30;57.81
32320;BME280;19080;51.750;5.888;2023-05-07T13:03:05;101490.53;;;25.23;60.09